sensor_id;sensor_type;location;lat;lon;timestamp;temperature;humidity
3504;DHT22;1766;53.490;10.174;2022-07-23T00:01:26;23.40;43.20
3504;DHT22;1766;53.490;10.174;2022-07-23T00:03:29;23.40;43.20
3504;DHT22;1766;53.490;10.174;2022-07-23T00:05:34;23.40;43.30
3504;DHT22;1766;53.490;10.174;2022-07-23T00:07:36;23.50;43.40
3504;DHT22;1766;53.490;10.174;2022-07-23T00:09:38;23.50;43.40
3504;DHT22;1766;53.490;10.174;2022-07-23T00:11:40;23.50;43.30
3504;DHT22;1766;53.490;10.174;2022-07-23T00:13:43;23.40;43.30
3504;DHT22;1766;53.490;10.174;2022-07-23T00:15:45;23.50;43.50
3504;DHT22;1766;53.490;10.174;2022-07-23T00:17:47;23.50;43.40
3504;DHT22;1766;53.490;10.174;2022-07-23T00:19:49;23.60;43.30
3504;DHT22;1766;53.490;10.174;2022-07-23T00:21:50;23.50;43.80
3504;DHT22;1766;53.490;10.174;2022-07-23T00:23:52;23.50;43.40
3504;DHT22;1766;53.490;10.174;2022-07-23T00:25:54;23.50;43.40
3504;DHT22;1766;53.490;10.174;2022-07-23T00:27:57;23.50;43.50
3504;DHT22;1766;53.490;10.174;2022-07-23T00:30:00;23.40;43.50
3504;DHT22;1766;53.490;10.174;2022-07-23T00:32:02;23.40;43.50
3504;DHT22;1766;53.490;10.174;2022-07-23T00:34:04;23.40;44.20
3504;DHT22;1766;53.490;10.174;2022-07-23T00:36:07;23.50;44.30
3504;DHT22;1766;53.490;10.174;2022-07-23T00:38:10;23.50;43.80
3504;DHT22;1766;53.490;10.174;2022-07-23T00:40:12;23.50;43.70
3504;DHT22;1766;53.490;10.174;2022-07-23T00:42:15;23.50;43.70
3504;DHT22;1766;53.490;10.174;2022-07-23T00:44:19;23.40;43.60
3504;DHT22;1766;53.490;10.174;2022-07-23T00:46:23;23.40;43.70
3504;DHT22;1766;53.490;10.174;2022-07-23T00:48:25;23.30;43.60
3504;DHT22;1766;53.490;10.174;2022-07-23T00:50:27;23.40;43.70
3504;DHT22;1766;53.490;10.174;2022-07-23T00:52:29;23.40;43.80
3504;DHT22;1766;53.490;10.174;2022-07-23T00:54:32;23.30;43.70
3504;DHT22;1766;53.490;10.174;2022-07-23T00:56:34;23.40;43.70
3504;DHT22;1766;53.490;10.174;2022-07-23T00:58:36;23.30;43.60
3504;DHT22;1766;53.490;10.174;2022-07-23T01:00:39;23.30;43.70
3504;DHT22;1766;53.490;10.174;2022-07-23T01:02:42;23.40;44.20
3504;DHT22;1766;53.490;10.174;2022-07-23T01:04:45;23.30;43.40
3504;DHT22;1766;53.490;10.174;2022-07-23T01:06:47;23.30;43.40
3504;DHT22;1766;53.490;10.174;2022-07-23T01:08:49;23.30;43.40
3504;DHT22;1766;53.490;10.174;2022-07-23T01:10:51;23.30;43.30
3504;DHT22;1766;53.490;10.174;2022-07-23T01:12:54;23.30;43.30
3504;DHT22;1766;53.490;10.174;2022-07-23T01:14:57;23.30;43.30
3504;DHT22;1766;53.490;10.174;2022-07-23T01:16:59;23.20;43.10
3504;DHT22;1766;53.490;10.174;2022-07-23T01:19:02;23.20;42.90
3504;DHT22;1766;53.490;10.174;2022-07-23T01:21:07;23.20;42.90
3504;DHT22;1766;53.490;10.174;2022-07-23T01:23:11;23.10;42.90
3504;DHT22;1766;53.490;10.174;2022-07-23T01:25:13;23.20;42.80
3504;DHT22;1766;53.490;10.174;2022-07-23T01:27:15;23.30;42.80
3504;DHT22;1766;53.490;10.174;2022-07-23T01:29:20;23.20;42.70
3504;DHT22;1766;53.490;10.174;2022-07-23T01:31:22;23.20;42.70
3504;DHT22;1766;53.490;10.174;2022-07-23T01:33:24;23.20;42.70
3504;DHT22;1766;53.490;10.174;2022-07-23T01:35:28;23.30;42.70
3504;DHT22;1766;53.490;10.174;2022-07-23T01:37:30;23.30;42.80
3504;DHT22;1766;53.490;10.174;2022-07-23T01:39:33;23.30;42.80
3504;DHT22;1766;53.490;10.174;2022-07-23T01:41:35;23.30;42.70
3504;DHT22;1766;53.490;10.174;2022-07-23T01:43:37;23.30;43.10
3504;DHT22;1766;53.490;10.174;2022-07-23T01:45:39;23.30;42.80
3504;DHT22;1766;53.490;10.174;2022-07-23T01:47:40;23.20;42.80
3504;DHT22;1766;53.490;10.174;2022-07-23T01:49:42;23.20;42.80
3504;DHT22;1766;53.490;10.174;2022-07-23T01:51:44;23.20;42.80
3504;DHT22;1766;53.490;10.174;2022-07-23T01:54:13;23.30;42.90
3504;DHT22;1766;53.490;10.174;2022-07-23T01:56:15;23.20;42.90
3504;DHT22;1766;53.490;10.174;2022-07-23T01:58:17;23.20;43.00
3504;DHT22;1766;53.490;10.174;2022-07-23T02:00:19;23.20;43.10
3504;DHT22;1766;53.490;10.174;2022-07-23T02:02:20;23.20;43.20
3504;DHT22;1766;53.490;10.174;2022-07-23T02:04:23;23.10;43.10
3504;DHT22;1766;53.490;10.174;2022-07-23T02:06:26;23.10;43.20
3504;DHT22;1766;53.490;10.174;2022-07-23T02:08:28;23.20;43.20
3504;DHT22;1766;53.490;10.174;2022-07-23T02:10:31;23.10;43.20
3504;DHT22;1766;53.490;10.174;2022-07-23T02:12:33;23.00;43.10
3504;DHT22;1766;53.490;10.174;2022-07-23T02:14:34;23.00;43.10
3504;DHT22;1766;53.490;10.174;2022-07-23T02:16:36;23.00;43.10
3504;DHT22;1766;53.490;10.174;2022-07-23T02:18:38;23.00;43.30
3504;DHT22;1766;53.490;10.174;2022-07-23T02:20:40;22.90;43.20
3504;DHT22;1766;53.490;10.174;2022-07-23T02:22:42;23.00;43.30
3504;DHT22;1766;53.490;10.174;2022-07-23T02:24:44;23.00;43.40
3504;DHT22;1766;53.490;10.174;2022-07-23T02:26:47;23.00;43.30
3504;DHT22;1766;53.490;10.174;2022-07-23T02:28:49;23.00;43.40
3504;DHT22;1766;53.490;10.174;2022-07-23T02:30:53;23.00;43.40
3504;DHT22;1766;53.490;10.174;2022-07-23T02:32:55;23.00;43.40
3504;DHT22;1766;53.490;10.174;2022-07-23T02:34:57;22.90;43.40
3504;DHT22;1766;53.490;10.174;2022-07-23T02:36:58;22.90;43.50
3504;DHT22;1766;53.490;10.174;2022-07-23T02:39:01;22.90;43.40
3504;DHT22;1766;53.490;10.174;2022-07-23T02:41:02;22.80;43.40
3504;DHT22;1766;53.490;10.174;2022-07-23T02:43:06;22.70;43.40
3504;DHT22;1766;53.490;10.174;2022-07-23T02:45:08;22.70;43.60
3504;DHT22;1766;53.490;10.174;2022-07-23T02:47:10;22.60;43.70
3504;DHT22;1766;53.490;10.174;2022-07-23T02:49:12;22.60;43.70
3504;DHT22;1766;53.490;10.174;2022-07-23T02:51:14;22.60;43.70
3504;DHT22;1766;53.490;10.174;2022-07-23T02:53:16;22.60;43.80
3504;DHT22;1766;53.490;10.174;2022-07-23T02:55:17;22.50;43.90
3504;DHT22;1766;53.490;10.174;2022-07-23T02:57:19;22.50;43.90
3504;DHT22;1766;53.490;10.174;2022-07-23T02:59:22;22.50;44.10
3504;DHT22;1766;53.490;10.174;2022-07-23T03:01:24;22.40;44.10
3504;DHT22;1766;53.490;10.174;2022-07-23T03:03:26;22.40;44.10
3504;DHT22;1766;53.490;10.174;2022-07-23T03:05:28;22.40;44.20
3504;DHT22;1766;53.490;10.174;2022-07-23T03:07:30;22.30;44.20
3504;DHT22;1766;53.490;10.174;2022-07-23T03:09:31;22.20;44.20
3504;DHT22;1766;53.490;10.174;2022-07-23T03:11:33;22.30;44.30
3504;DHT22;1766;53.490;10.174;2022-07-23T03:13:35;22.20;44.40
3504;DHT22;1766;53.490;10.174;2022-07-23T03:15:38;22.20;44.50
3504;DHT22;1766;53.490;10.174;2022-07-23T03:17:40;22.10;44.50
3504;DHT22;1766;53.490;10.174;2022-07-23T03:19:42;22.10;44.60
3504;DHT22;1766;53.490;10.174;2022-07-23T03:21:43;22.10;44.70
3504;DHT22;1766;53.490;10.174;2022-07-23T03:23:45;22.20;44.80
3504;DHT22;1766;53.490;10.174;2022-07-23T03:25:47;22.10;44.80
3504;DHT22;1766;53.490;10.174;2022-07-23T03:27:49;22.10;44.80
3504;DHT22;1766;53.490;10.174;2022-07-23T03:29:52;22.10;44.80
3504;DHT22;1766;53.490;10.174;2022-07-23T03:31:56;22.10;44.90
3504;DHT22;1766;53.490;10.174;2022-07-23T03:33:58;22.00;44.80
3504;DHT22;1766;53.490;10.174;2022-07-23T03:36:00;22.10;45.00
3504;DHT22;1766;53.490;10.174;2022-07-23T03:38:02;22.00;44.90
3504;DHT22;1766;53.490;10.174;2022-07-23T03:40:05;23.00;45.60
3504;DHT22;1766;53.490;10.174;2022-07-23T03:42:07;22.10;45.30
3504;DHT22;1766;53.490;10.174;2022-07-23T03:44:09;22.00;45.10
3504;DHT22;1766;53.490;10.174;2022-07-23T03:46:11;22.10;45.40
3504;DHT22;1766;53.490;10.174;2022-07-23T03:48:14;22.00;45.50
3504;DHT22;1766;53.490;10.174;2022-07-23T03:50:16;21.90;45.40
3504;DHT22;1766;53.490;10.174;2022-07-23T03:52:18;21.90;45.50
3504;DHT22;1766;53.490;10.174;2022-07-23T03:54:20;21.80;45.50
3504;DHT22;1766;53.490;10.174;2022-07-23T03:56:22;21.90;45.70
3504;DHT22;1766;53.490;10.174;2022-07-23T03:58:24;21.90;45.80
3504;DHT22;1766;53.490;10.174;2022-07-23T04:00:26;21.90;45.90
3504;DHT22;1766;53.490;10.174;2022-07-23T04:02:28;21.80;46.00
3504;DHT22;1766;53.490;10.174;2022-07-23T04:04:31;21.80;46.00
3504;DHT22;1766;53.490;10.174;2022-07-23T04:06:33;21.80;46.10
3504;DHT22;1766;53.490;10.174;2022-07-23T04:08:35;21.80;46.30
3504;DHT22;1766;53.490;10.174;2022-07-23T04:10:36;21.90;46.50
3504;DHT22;1766;53.490;10.174;2022-07-23T04:12:38;21.90;46.60
3504;DHT22;1766;53.490;10.174;2022-07-23T04:14:40;21.90;46.70
3504;DHT22;1766;53.490;10.174;2022-07-23T04:16:42;22.00;46.80
3504;DHT22;1766;53.490;10.174;2022-07-23T04:18:44;22.00;46.90
3504;DHT22;1766;53.490;10.174;2022-07-23T04:20:47;22.10;47.00
3504;DHT22;1766;53.490;10.174;2022-07-23T04:22:49;22.10;47.00
3504;DHT22;1766;53.490;10.174;2022-07-23T04:24:51;22.20;47.10
3504;DHT22;1766;53.490;10.174;2022-07-23T04:26:53;22.30;47.00
3504;DHT22;1766;53.490;10.174;2022-07-23T04:28:55;22.30;47.00
3504;DHT22;1766;53.490;10.174;2022-07-23T04:30:59;22.30;46.90
3504;DHT22;1766;53.490;10.174;2022-07-23T04:33:01;22.20;46.90
3504;DHT22;1766;53.490;10.174;2022-07-23T04:35:06;22.30;46.90
3504;DHT22;1766;53.490;10.174;2022-07-23T04:37:09;22.40;46.90
3504;DHT22;1766;53.490;10.174;2022-07-23T04:39:11;22.40;46.90
3504;DHT22;1766;53.490;10.174;2022-07-23T04:41:13;22.40;46.90
3504;DHT22;1766;53.490;10.174;2022-07-23T04:43:15;22.30;46.80
3504;DHT22;1766;53.490;10.174;2022-07-23T04:45:17;22.20;46.80
3504;DHT22;1766;53.490;10.174;2022-07-23T04:47:18;22.30;46.80
3504;DHT22;1766;53.490;10.174;2022-07-23T04:49:20;22.40;47.00
3504;DHT22;1766;53.490;10.174;2022-07-23T04:51:23;22.30;46.90
3504;DHT22;1766;53.490;10.174;2022-07-23T04:53:26;22.30;46.90
3504;DHT22;1766;53.490;10.174;2022-07-23T04:55:28;22.30;46.90
3504;DHT22;1766;53.490;10.174;2022-07-23T04:57:30;22.30;46.90
3504;DHT22;1766;53.490;10.174;2022-07-23T04:59:31;22.30;46.90
3504;DHT22;1766;53.490;10.174;2022-07-23T05:01:33;22.30;46.80
3504;DHT22;1766;53.490;10.174;2022-07-23T05:03:35;22.30;46.90
3504;DHT22;1766;53.490;10.174;2022-07-23T05:05:37;22.40;46.90
3504;DHT22;1766;53.490;10.174;2022-07-23T05:07:39;22.40;46.90
3504;DHT22;1766;53.490;10.174;2022-07-23T05:09:42;22.40;46.90
3504;DHT22;1766;53.490;10.174;2022-07-23T05:11:44;22.30;46.90
3504;DHT22;1766;53.490;10.174;2022-07-23T05:13:46;22.30;46.80
3504;DHT22;1766;53.490;10.174;2022-07-23T05:15:48;22.30;46.90
3504;DHT22;1766;53.490;10.174;2022-07-23T05:17:50;22.40;46.80
3504;DHT22;1766;53.490;10.174;2022-07-23T05:19:54;22.30;47.00
3504;DHT22;1766;53.490;10.174;2022-07-23T05:21:55;22.30;47.00
3504;DHT22;1766;53.490;10.174;2022-07-23T05:23:57;22.40;47.10
3504;DHT22;1766;53.490;10.174;2022-07-23T05:26:01;22.50;47.30
3504;DHT22;1766;53.490;10.174;2022-07-23T05:28:03;22.40;47.20
3504;DHT22;1766;53.490;10.174;2022-07-23T05:30:06;22.50;47.40
3504;DHT22;1766;53.490;10.174;2022-07-23T05:32:08;22.50;47.50
3504;DHT22;1766;53.490;10.174;2022-07-23T05:34:10;22.60;47.60
3504;DHT22;1766;53.490;10.174;2022-07-23T05:36:12;22.70;47.60
3504;DHT22;1766;53.490;10.174;2022-07-23T05:38:14;22.60;48.10
3504;DHT22;1766;53.490;10.174;2022-07-23T05:40:16;22.70;47.60
3504;DHT22;1766;53.490;10.174;2022-07-23T05:42:19;22.70;47.70
3504;DHT22;1766;53.490;10.174;2022-07-23T05:44:20;22.70;47.60
3504;DHT22;1766;53.490;10.174;2022-07-23T05:46:22;22.80;47.60
3504;DHT22;1766;53.490;10.174;2022-07-23T05:48:24;22.80;47.60
3504;DHT22;1766;53.490;10.174;2022-07-23T05:50:26;22.90;47.90
3504;DHT22;1766;53.490;10.174;2022-07-23T05:52:28;22.90;47.80
3504;DHT22;1766;53.490;10.174;2022-07-23T05:54:30;22.90;47.70
3504;DHT22;1766;53.490;10.174;2022-07-23T05:56:32;22.90;47.60
3504;DHT22;1766;53.490;10.174;2022-07-23T05:58:35;23.00;47.70
3504;DHT22;1766;53.490;10.174;2022-07-23T06:00:37;23.00;47.60
3504;DHT22;1766;53.490;10.174;2022-07-23T06:02:39;23.10;47.60
3504;DHT22;1766;53.490;10.174;2022-07-23T06:04:41;23.20;47.60
3504;DHT22;1766;53.490;10.174;2022-07-23T06:06:42;23.20;47.30
3504;DHT22;1766;53.490;10.174;2022-07-23T06:08:44;23.30;47.30
3504;DHT22;1766;53.490;10.174;2022-07-23T06:10:46;23.30;47.20
3504;DHT22;1766;53.490;10.174;2022-07-23T06:12:48;23.30;47.00
3504;DHT22;1766;53.490;10.174;2022-07-23T06:14:51;23.30;47.10
3504;DHT22;1766;53.490;10.174;2022-07-23T06:16:53;23.30;47.00
3504;DHT22;1766;53.490;10.174;2022-07-23T06:18:55;23.40;47.00
3504;DHT22;1766;53.490;10.174;2022-07-23T06:20:56;23.60;47.10
3504;DHT22;1766;53.490;10.174;2022-07-23T06:22:58;23.60;46.90
3504;DHT22;1766;53.490;10.174;2022-07-23T06:25:00;23.60;46.60
3504;DHT22;1766;53.490;10.174;2022-07-23T06:27:02;23.60;46.60
3504;DHT22;1766;53.490;10.174;2022-07-23T06:29:04;23.60;46.50
3504;DHT22;1766;53.490;10.174;2022-07-23T06:31:07;23.50;46.20
3504;DHT22;1766;53.490;10.174;2022-07-23T06:33:09;23.60;46.30
3504;DHT22;1766;53.490;10.174;2022-07-23T06:35:12;23.70;46.30
3504;DHT22;1766;53.490;10.174;2022-07-23T06:37:14;23.80;46.30
3504;DHT22;1766;53.490;10.174;2022-07-23T06:39:16;23.90;46.10
3504;DHT22;1766;53.490;10.174;2022-07-23T06:41:18;24.00;45.80
3504;DHT22;1766;53.490;10.174;2022-07-23T06:43:20;24.00;45.50
3504;DHT22;1766;53.490;10.174;2022-07-23T06:45:22;24.10;45.40
3504;DHT22;1766;53.490;10.174;2022-07-23T06:47:25;24.10;45.20
3504;DHT22;1766;53.490;10.174;2022-07-23T06:49:27;24.10;45.10
3504;DHT22;1766;53.490;10.174;2022-07-23T06:51:29;24.20;45.00
3504;DHT22;1766;53.490;10.174;2022-07-23T06:53:31;24.30;44.90
3504;DHT22;1766;53.490;10.174;2022-07-23T06:55:32;24.30;44.60
3504;DHT22;1766;53.490;10.174;2022-07-23T06:57:38;24.40;44.40
3504;DHT22;1766;53.490;10.174;2022-07-23T06:59:40;24.40;44.30
3504;DHT22;1766;53.490;10.174;2022-07-23T07:01:42;24.40;44.10
3504;DHT22;1766;53.490;10.174;2022-07-23T07:03:45;24.40;44.00
3504;DHT22;1766;53.490;10.174;2022-07-23T07:05:47;24.30;43.60
3504;DHT22;1766;53.490;10.174;2022-07-23T07:07:50;24.30;43.70
3504;DHT22;1766;53.490;10.174;2022-07-23T07:09:51;24.30;43.80
3504;DHT22;1766;53.490;10.174;2022-07-23T07:11:53;24.30;43.70
3504;DHT22;1766;53.490;10.174;2022-07-23T07:13:55;24.20;43.50
3504;DHT22;1766;53.490;10.174;2022-07-23T07:15:57;24.20;43.60
3504;DHT22;1766;53.490;10.174;2022-07-23T07:17:59;24.20;43.60
3504;DHT22;1766;53.490;10.174;2022-07-23T07:20:02;24.30;43.70
3504;DHT22;1766;53.490;10.174;2022-07-23T07:22:04;24.30;43.40
3504;DHT22;1766;53.490;10.174;2022-07-23T07:24:06;24.20;43.10
3504;DHT22;1766;53.490;10.174;2022-07-23T07:26:08;24.20;43.10
3504;DHT22;1766;53.490;10.174;2022-07-23T07:28:10;24.20;43.10
3504;DHT22;1766;53.490;10.174;2022-07-23T07:30:12;24.20;43.10
3504;DHT22;1766;53.490;10.174;2022-07-23T07:32:14;24.30;43.00
3504;DHT22;1766;53.490;10.174;2022-07-23T07:34:16;24.50;43.10
3504;DHT22;1766;53.490;10.174;2022-07-23T07:36:19;24.70;43.00
3504;DHT22;1766;53.490;10.174;2022-07-23T07:38:21;24.80;42.70
3504;DHT22;1766;53.490;10.174;2022-07-23T07:40:23;24.90;42.50
3504;DHT22;1766;53.490;10.174;2022-07-23T07:42:25;25.00;42.00
3504;DHT22;1766;53.490;10.174;2022-07-23T07:44:27;25.10;41.70
3504;DHT22;1766;53.490;10.174;2022-07-23T07:46:35;25.00;41.10
3504;DHT22;1766;53.490;10.174;2022-07-23T07:54:18;24.10;40.30
3504;DHT22;1766;53.490;10.174;2022-07-23T07:56:25;24.90;40.60
3504;DHT22;1766;53.490;10.174;2022-07-23T07:58:35;24.80;40.50
3504;DHT22;1766;53.490;10.174;2022-07-23T08:00:37;24.80;40.20
3504;DHT22;1766;53.490;10.174;2022-07-23T08:02:42;24.80;39.60
3504;DHT22;1766;53.490;10.174;2022-07-23T08:04:44;24.80;41.00
3504;DHT22;1766;53.490;10.174;2022-07-23T08:06:46;24.80;40.80
3504;DHT22;1766;53.490;10.174;2022-07-23T08:08:49;24.90;40.80
3504;DHT22;1766;53.490;10.174;2022-07-23T08:10:51;25.00;40.80
3504;DHT22;1766;53.490;10.174;2022-07-23T08:12:54;25.00;41.00
3504;DHT22;1766;53.490;10.174;2022-07-23T08:14:57;25.10;41.10
3504;DHT22;1766;53.490;10.174;2022-07-23T08:16:59;25.30;41.10
3504;DHT22;1766;53.490;10.174;2022-07-23T08:19:01;25.50;41.00
3504;DHT22;1766;53.490;10.174;2022-07-23T08:21:03;25.70;40.80
3504;DHT22;1766;53.490;10.174;2022-07-23T08:23:07;25.60;40.60
3504;DHT22;1766;53.490;10.174;2022-07-23T08:25:11;25.70;40.40
3504;DHT22;1766;53.490;10.174;2022-07-23T08:27:13;25.70;40.00
3504;DHT22;1766;53.490;10.174;2022-07-23T08:29:14;25.70;39.90
3504;DHT22;1766;53.490;10.174;2022-07-23T08:31:16;25.70;39.80
3504;DHT22;1766;53.490;10.174;2022-07-23T08:33:19;25.70;39.80
3504;DHT22;1766;53.490;10.174;2022-07-23T08:35:28;25.70;39.70
3504;DHT22;1766;53.490;10.174;2022-07-23T08:37:31;25.60;39.60
3504;DHT22;1766;53.490;10.174;2022-07-23T08:39:33;25.60;39.50
3504;DHT22;1766;53.490;10.174;2022-07-23T08:41:39;25.50;39.40
3504;DHT22;1766;53.490;10.174;2022-07-23T08:43:42;25.40;39.80
3504;DHT22;1766;53.490;10.174;2022-07-23T08:45:47;25.50;40.00
3504;DHT22;1766;53.490;10.174;2022-07-23T08:47:50;25.50;40.00
3504;DHT22;1766;53.490;10.174;2022-07-23T08:49:55;25.50;39.90
3504;DHT22;1766;53.490;10.174;2022-07-23T08:51:57;25.40;39.90
3504;DHT22;1766;53.490;10.174;2022-07-23T08:53:59;25.40;40.00
3504;DHT22;1766;53.490;10.174;2022-07-23T08:56:03;25.40;40.10
3504;DHT22;1766;53.490;10.174;2022-07-23T08:58:06;25.30;40.10
3504;DHT22;1766;53.490;10.174;2022-07-23T09:00:09;25.40;39.80
3504;DHT22;1766;53.490;10.174;2022-07-23T09:02:12;25.40;39.90
3504;DHT22;1766;53.490;10.174;2022-07-23T09:04:14;25.50;40.00
3504;DHT22;1766;53.490;10.174;2022-07-23T09:06:16;25.40;40.30
3504;DHT22;1766;53.490;10.174;2022-07-23T09:08:19;25.30;39.60
3504;DHT22;1766;53.490;10.174;2022-07-23T09:10:22;25.40;39.90
3504;DHT22;1766;53.490;10.174;2022-07-23T09:12:26;25.50;39.80
3504;DHT22;1766;53.490;10.174;2022-07-23T09:14:37;25.70;39.60
3504;DHT22;1766;53.490;10.174;2022-07-23T09:16:40;25.70;39.40
3504;DHT22;1766;53.490;10.174;2022-07-23T09:18:46;25.80;39.10
3504;DHT22;1766;53.490;10.174;2022-07-23T09:20:54;25.80;39.00
3504;DHT22;1766;53.490;10.174;2022-07-23T09:23:07;25.00;38.60
3504;DHT22;1766;53.490;10.174;2022-07-23T09:25:10;25.80;39.10
3504;DHT22;1766;53.490;10.174;2022-07-23T09:27:14;25.80;38.90
3504;DHT22;1766;53.490;10.174;2022-07-23T09:29:19;25.90;38.70
3504;DHT22;1766;53.490;10.174;2022-07-23T09:31:25;26.00;38.70
3504;DHT22;1766;53.490;10.174;2022-07-23T09:33:28;26.00;38.40
3504;DHT22;1766;53.490;10.174;2022-07-23T09:35:44;26.10;38.20
3504;DHT22;1766;53.490;10.174;2022-07-23T09:38:01;26.10;38.20
3504;DHT22;1766;53.490;10.174;2022-07-23T09:40:05;26.30;37.80
3504;DHT22;1766;53.490;10.174;2022-07-23T09:42:13;26.40;37.30
3504;DHT22;1766;53.490;10.174;2022-07-23T09:44:17;26.40;37.10
3504;DHT22;1766;53.490;10.174;2022-07-23T09:46:24;26.50;37.20
3504;DHT22;1766;53.490;10.174;2022-07-23T09:48:28;26.50;37.10
3504;DHT22;1766;53.490;10.174;2022-07-23T09:50:29;26.70;37.20
3504;DHT22;1766;53.490;10.174;2022-07-23T09:52:33;26.50;36.50
3504;DHT22;1766;53.490;10.174;2022-07-23T09:54:38;26.40;36.60
3504;DHT22;1766;53.490;10.174;2022-07-23T09:56:41;26.50;36.80
3504;DHT22;1766;53.490;10.174;2022-07-23T09:58:44;26.50;36.90
3504;DHT22;1766;53.490;10.174;2022-07-23T10:00:48;26.70;36.90
3504;DHT22;1766;53.490;10.174;2022-07-23T10:02:52;26.80;36.80
3504;DHT22;1766;53.490;10.174;2022-07-23T10:04:55;26.90;36.70
3504;DHT22;1766;53.490;10.174;2022-07-23T10:06:59;26.90;36.30
3504;DHT22;1766;53.490;10.174;2022-07-23T10:09:03;27.00;36.00
3504;DHT22;1766;53.490;10.174;2022-07-23T10:11:05;27.00;35.80
3504;DHT22;1766;53.490;10.174;2022-07-23T10:13:07;27.20;35.80
3504;DHT22;1766;53.490;10.174;2022-07-23T10:15:24;27.30;35.70
3504;DHT22;1766;53.490;10.174;2022-07-23T10:17:27;27.30;35.20
3504;DHT22;1766;53.490;10.174;2022-07-23T10:19:31;27.30;34.70
3504;DHT22;1766;53.490;10.174;2022-07-23T10:21:39;27.20;34.60
3504;DHT22;1766;53.490;10.174;2022-07-23T10:23:47;27.10;34.60
3504;DHT22;1766;53.490;10.174;2022-07-23T10:25:59;27.10;34.40
3504;DHT22;1766;53.490;10.174;2022-07-23T10:28:20;27.10;34.10
3504;DHT22;1766;53.490;10.174;2022-07-23T10:30:38;27.00;34.00
3504;DHT22;1766;53.490;10.174;2022-07-23T10:32:53;27.00;34.20
3504;DHT22;1766;53.490;10.174;2022-07-23T10:35:21;26.90;34.30
3504;DHT22;1766;53.490;10.174;2022-07-23T10:37:32;26.90;34.40
3504;DHT22;1766;53.490;10.174;2022-07-23T10:39:38;26.80;34.60
3504;DHT22;1766;53.490;10.174;2022-07-23T10:41:41;27.00;34.80
3504;DHT22;1766;53.490;10.174;2022-07-23T10:43:43;26.90;35.10
3504;DHT22;1766;53.490;10.174;2022-07-23T10:45:45;26.90;35.10
3504;DHT22;1766;53.490;10.174;2022-07-23T10:47:47;27.00;35.20
3504;DHT22;1766;53.490;10.174;2022-07-23T10:49:51;27.10;35.20
3504;DHT22;1766;53.490;10.174;2022-07-23T10:52:17;27.30;35.00
3504;DHT22;1766;53.490;10.174;2022-07-23T10:54:21;27.20;34.80
3504;DHT22;1766;53.490;10.174;2022-07-23T10:59:10;27.50;34.00
3504;DHT22;1766;53.490;10.174;2022-07-23T11:01:34;27.70;33.50
3504;DHT22;1766;53.490;10.174;2022-07-23T11:03:37;27.80;33.40
3504;DHT22;1766;53.490;10.174;2022-07-23T11:05:41;28.00;32.90
3504;DHT22;1766;53.490;10.174;2022-07-23T11:10:32;28.20;32.50
3504;DHT22;1766;53.490;10.174;2022-07-23T11:12:36;28.30;32.00
3504;DHT22;1766;53.490;10.174;2022-07-23T11:15:00;28.40;31.20
3504;DHT22;1766;53.490;10.174;2022-07-23T11:17:19;28.40;31.40
3504;DHT22;1766;53.490;10.174;2022-07-23T11:19:21;28.40;31.20
3504;DHT22;1766;53.490;10.174;2022-07-23T11:23:59;28.50;31.40
3504;DHT22;1766;53.490;10.174;2022-07-23T11:26:02;28.60;31.30
3504;DHT22;1766;53.490;10.174;2022-07-23T11:28:10;28.60;31.20
3504;DHT22;1766;53.490;10.174;2022-07-23T11:30:37;28.70;31.10
3504;DHT22;1766;53.490;10.174;2022-07-23T11:32:41;28.70;31.30
3504;DHT22;1766;53.490;10.174;2022-07-23T11:34:45;28.90;31.30
3504;DHT22;1766;53.490;10.174;2022-07-23T11:36:49;28.80;31.30
3504;DHT22;1766;53.490;10.174;2022-07-23T11:38:52;28.70;31.40
3504;DHT22;1766;53.490;10.174;2022-07-23T11:40:57;28.60;31.50
3504;DHT22;1766;53.490;10.174;2022-07-23T11:43:00;28.50;31.30
3504;DHT22;1766;53.490;10.174;2022-07-23T11:45:05;28.50;31.50
3504;DHT22;1766;53.490;10.174;2022-07-23T11:47:09;28.40;31.40
3504;DHT22;1766;53.490;10.174;2022-07-23T11:49:12;28.40;31.30
3504;DHT22;1766;53.490;10.174;2022-07-23T11:51:25;28.40;31.00
3504;DHT22;1766;53.490;10.174;2022-07-23T11:53:30;28.50;30.80
3504;DHT22;1766;53.490;10.174;2022-07-23T11:55:34;28.60;30.60
3504;DHT22;1766;53.490;10.174;2022-07-23T11:57:39;28.70;30.30
3504;DHT22;1766;53.490;10.174;2022-07-23T11:59:42;29.50;29.90
3504;DHT22;1766;53.490;10.174;2022-07-23T12:01:56;30.60;29.20
3504;DHT22;1766;53.490;10.174;2022-07-23T12:03:59;32.00;28.30
3504;DHT22;1766;53.490;10.174;2022-07-23T12:06:01;33.00;27.10
3504;DHT22;1766;53.490;10.174;2022-07-23T12:08:05;33.60;26.50
3504;DHT22;1766;53.490;10.174;2022-07-23T12:10:12;33.90;26.30
3504;DHT22;1766;53.490;10.174;2022-07-23T12:12:15;33.90;26.10
3504;DHT22;1766;53.490;10.174;2022-07-23T12:14:18;33.60;26.20
3504;DHT22;1766;53.490;10.174;2022-07-23T12:16:21;33.00;26.30
3504;DHT22;1766;53.490;10.174;2022-07-23T12:18:26;32.30;27.00
3504;DHT22;1766;53.490;10.174;2022-07-23T12:20:31;31.70;27.60
3504;DHT22;1766;53.490;10.174;2022-07-23T12:22:36;31.10;28.00
3504;DHT22;1766;53.490;10.174;2022-07-23T12:24:56;30.50;28.50
3504;DHT22;1766;53.490;10.174;2022-07-23T12:27:14;29.90;29.00
3504;DHT22;1766;53.490;10.174;2022-07-23T12:29:17;29.30;29.50
3504;DHT22;1766;53.490;10.174;2022-07-23T12:31:25;29.00;30.00
3504;DHT22;1766;53.490;10.174;2022-07-23T12:33:28;28.70;30.60
3504;DHT22;1766;53.490;10.174;2022-07-23T12:35:34;28.60;31.00
3504;DHT22;1766;53.490;10.174;2022-07-23T12:37:40;28.40;31.30
3504;DHT22;1766;53.490;10.174;2022-07-23T12:39:43;28.30;31.70
3504;DHT22;1766;53.490;10.174;2022-07-23T12:41:53;28.30;31.90
3504;DHT22;1766;53.490;10.174;2022-07-23T12:43:55;28.40;32.30
3504;DHT22;1766;53.490;10.174;2022-07-23T12:46:05;28.60;32.40
3504;DHT22;1766;53.490;10.174;2022-07-23T12:48:14;28.80;32.30
3504;DHT22;1766;53.490;10.174;2022-07-23T12:50:37;29.10;32.10
3504;DHT22;1766;53.490;10.174;2022-07-23T12:52:40;29.10;31.90
3504;DHT22;1766;53.490;10.174;2022-07-23T12:54:42;29.20;31.80
3504;DHT22;1766;53.490;10.174;2022-07-23T12:56:45;29.20;31.90
3504;DHT22;1766;53.490;10.174;2022-07-23T12:58:48;29.10;31.90
3504;DHT22;1766;53.490;10.174;2022-07-23T13:00:53;29.10;32.30
3504;DHT22;1766;53.490;10.174;2022-07-23T13:02:58;29.30;32.40
3504;DHT22;1766;53.490;10.174;2022-07-23T13:05:00;29.50;32.10
3504;DHT22;1766;53.490;10.174;2022-07-23T13:07:01;29.80;32.00
3504;DHT22;1766;53.490;10.174;2022-07-23T13:09:05;30.20;31.40
3504;DHT22;1766;53.490;10.174;2022-07-23T13:11:08;30.50;30.80
3504;DHT22;1766;53.490;10.174;2022-07-23T13:13:10;30.80;30.20
3504;DHT22;1766;53.490;10.174;2022-07-23T13:15:12;30.80;30.10
3504;DHT22;1766;53.490;10.174;2022-07-23T13:17:14;31.10;29.90
3504;DHT22;1766;53.490;10.174;2022-07-23T13:19:18;31.50;29.60
3504;DHT22;1766;53.490;10.174;2022-07-23T13:21:20;31.70;29.50
3504;DHT22;1766;53.490;10.174;2022-07-23T13:23:22;32.00;29.10
3504;DHT22;1766;53.490;10.174;2022-07-23T13:25:24;32.10;28.60
3504;DHT22;1766;53.490;10.174;2022-07-23T13:27:26;32.00;28.40